Nearby METAR Reports

 

KFNL - Ft Collins/Lovel, Colorado, USA
Distance from station: E 23mi, 37km
Updated: Fri, 27-Nov-2020 8:56am MST
Clear
Clear
 Wind from N
Wind: N 7 mph , 11 km/h
Temperature: 27°F , -3°C
Wind Chill: 19°F , -7°C
Dew Point: 25°F , -4°C
Humidity: 93%
Barometer: 30.28 inHg , 1025.4 hPa
Clouds: Clear
Visibility: 10 miles , 16 km
2020/11/27 15:56 KFNL 271556Z 36006KT 10SM CLR M03/M04 A3028 RMK AO2 SLP276 T10281039 FZRANO
KLMO - Longmont/Vbrand, Colorado, USA
Distance from station: SE 26mi, 41km
Updated: Fri, 27-Nov-2020 9:55am MST
Clear
Clear
 Wind from N
Wind: N 6 mph , 9 km/h
Temperature: 37°F , 3°C
Wind Chill: 32°F , 0°C
Dew Point: 28°F , -2°C
Humidity: 70%
Barometer: 30.29 inHg , 1025.7 hPa
Clouds: Clear
Visibility: 10 miles , 16 km
2020/11/27 16:55 KLMO 271655Z AUTO 36005KT 10SM CLR 03/M02 A3029 RMK AO2 T00291021
 
KBDU - Boulder Muni, Colorado, USA
Distance from station: SSE 32mi, 52km
Updated: Fri, 27-Nov-2020 9:48am MST
Clear
Clear
 Wind from calm
Wind: Calm
Temperature: 32°F , 0°C
Dew Point: 25°F , -4°C
Humidity: 75%
Barometer: 30.26 inHg , 1024.7 hPa
Clouds: Clear
Visibility: 10 miles , 16 km
2020/11/27 16:48 KBDU 271648Z AUTO 00000KT 10SM CLR 00/M04 A3026 RMK AO2
KEIK - Erie Muni, Colorado, USA
Distance from station: SE 38mi, 61km
Updated: Fri, 27-Nov-2020 9:55am MST
Mist, Mostly cloudy
Mist, Mostly cloudy
 Wind from calm
Wind: Calm
Temperature: 30°F , -1°C
Dew Point: 28°F , -2°C
Humidity: 93%
Barometer: 30.27 inHg , 1025.1 hPa
Summary: Mist
Clouds: Mostly cloudy
Visibility: 3/4 mile , 1.2 km
Cloud details: Mostly cloudy 200 ft
2020/11/27 16:55 KEIK 271655Z AUTO 00000KT 3/4SM BR BKN002 M01/M02 A3027 RMK AO2 T10151017
 
KBJC - Broomfield/Jeffc, Colorado, USA
Distance from station: SSE 44mi, 70km
Updated: Fri, 27-Nov-2020 9:45am MST
Clear
Clear
 Wind from calm
Wind: Calm
Temperature: 32°F , 0°C
Dew Point: 27°F , -3°C
Humidity: 80%
Barometer: 30.26 inHg , 1024.7 hPa
Clouds: Clear
Visibility: 10 miles , 16 km
2020/11/27 16:45 KBJC 271645Z 00000KT 10SM SKC 00/M03 A3026
KGXY - Greeley/Weld, Colorado, USA
Distance from station: E 44mi, 71km
Updated: Fri, 27-Nov-2020 9:56am MST
Clear
Clear
 Wind from calm
Wind: Calm
Temperature: 34°F , 1°C
Dew Point: 19°F , -7°C
Humidity: 56%
Barometer: 30.31 inHg , 1026.4 hPa
Clouds: Clear
Visibility: 10 miles , 16 km
2020/11/27 16:56 KGXY 271656Z AUTO 00000KT 10SM CLR 01/M07 A3031 RMK AO2 SLP296 T00111072 FZRANO
 
K33V - Walden, Colorado, USA
Distance from station: WNW 48mi, 77km
Updated: Fri, 27-Nov-2020 9:39am MST
Clear
Clear
 Wind from calm
Wind: Calm
Temperature: 14°F , -10°C
Dew Point: 9°F , -13°C
Humidity: 79%
Barometer: 30.32 inHg , 1026.8 hPa
Clouds: Clear
Visibility: 10 miles , 16 km
2020/11/27 16:39 K33V 271639Z AUTO 00000KT 10SM CLR M10/M13 A3032 RMK AO1
K0CO - Berthoud Pass, Colorado, USA
Distance from station: SSW 49mi, 79km
Updated: Fri, 27-Nov-2020 9:55am MST
Clear
Clear
 Wind from ESE
Wind: ESE 7 mph , 11 km/h
Temperature: 18°F , -8°C
Wind Chill: 9°F , -13°C
Dew Point: -0°F , -18°C
Humidity: 45%
Barometer: 30.24 inHg , 1024 hPa
Clouds: Clear
Visibility: 10 miles , 16 km
2020/11/27 16:55 K0CO 271655Z AUTO 12006KT 10SM CLR M08/M18 A3024 RMK AO2 PWINO